Main page
METAR-TAF:

METAR-TAF

Airports :

Mécheria Airport

Mécheria, Algeria

latitude: 34-56N, longitude: 000-26W, elevation: 1149 m

Current weather observation

The report was made 2 hours and 22 minutes ago, at 02:00 UTC
Calm wind
Temperature 21°C
Humidity 43%
Pressure 1026 hPa
Visibility: 7000 m

METAR: DAAY 260200Z 00000KT 7000 NSC 21/08 Q1026

Time: 05:22 (04:22 UTC)

Forecast

The report was made 2 hours and 22 minutes ago, at 02:00 UTC
Forecast valid from 26 at 03 UTC to 26 at 12 UTC
Wind 10 kt from the Southeast
Visibility: 8000 m
Scattered clouds at a height of 3000 ft

TAF: DAAY 260200Z 2603/2612 14010KT 8000 SCT030

Weather observations and forecasts of more than 4000 airports (METAR and TAF reports).

The available stations are represented by yellow and red dots on the map.

Hover mouse over dot to see the name of the station.

Then click to see weather observations and forecasts.

To change the map : click on the green buttons with a black cross to zoom in, on the green button with a dash to zoom out, or on the green arrows for adjacent maps.


METAR-TAF: